createdAt,value
2023-04-18T00:00:24.232Z,14.13
2023-04-18T00:02:53.905Z,13.52
2023-04-18T00:05:20.982Z,17.52
2023-04-18T00:07:47.825Z,16.08
2023-04-18T00:10:14.175Z,14.25
2023-04-18T00:12:40.466Z,15.75
2023-04-18T00:15:10.037Z,12.70
2023-04-18T00:17:38.399Z,15.68
2023-04-18T00:20:07.002Z,15.82
2023-04-18T00:22:33.686Z,15.48
2023-04-18T00:25:00.018Z,13.18
2023-04-18T00:27:26.276Z,14.38
2023-04-18T00:29:52.519Z,14.38
2023-04-18T00:32:19.602Z,14.23
2023-04-18T00:34:45.881Z,12.98
2023-04-18T00:37:12.649Z,13.05
2023-04-18T00:39:38.906Z,9.85
2023-04-18T00:42:05.318Z,9.77
2023-04-18T00:44:32.052Z,11.05
2023-04-18T00:46:58.431Z,11.35
2023-04-18T00:49:25.461Z,13.25
2023-04-18T00:51:51.847Z,11.38
2023-04-18T00:54:18.651Z,12.30
2023-04-18T00:56:45.493Z,10.25
2023-04-18T00:59:11.983Z,12.30
2023-04-18T01:01:40.264Z,15.23
2023-04-18T01:04:08.112Z,9.43
2023-04-18T01:06:35.419Z,10.80
2023-04-18T01:09:02.222Z,10.55
2023-04-18T01:11:28.601Z,14.27
2023-04-18T01:13:58.572Z,12.63
2023-04-18T01:16:24.878Z,9.80
2023-04-18T01:18:51.230Z,9.27
2023-04-18T01:21:18.162Z,10.80
2023-04-18T01:23:44.404Z,14.00
2023-04-18T01:26:11.014Z,8.48
2023-04-18T01:28:37.487Z,11.35
2023-04-18T01:31:03.878Z,9.57
2023-04-18T01:33:30.162Z,7.80
2023-04-18T01:35:56.395Z,13.55
2023-04-18T01:38:22.722Z,10.25
2023-04-18T01:40:49.234Z,13.00
2023-04-18T01:43:15.520Z,12.27
2023-04-18T01:45:41.766Z,11.93
2023-04-18T01:48:08.001Z,15.15
2023-04-18T01:50:34.314Z,10.85
2023-04-18T01:53:00.609Z,8.52
2023-04-18T01:55:26.893Z,11.93
2023-04-18T01:57:53.196Z,12.45
2023-04-18T02:00:19.775Z,9.93
2023-04-18T02:02:46.282Z,11.27
2023-04-18T02:05:12.685Z,13.45
2023-04-18T02:07:39.674Z,10.98
2023-04-18T02:10:06.245Z,9.75
2023-04-18T02:12:32.720Z,12.23
2023-04-18T02:14:58.938Z,9.88
2023-04-18T02:17:25.269Z,8.27
2023-04-18T02:19:51.846Z,9.43
2023-04-18T02:22:18.551Z,8.60
2023-04-18T02:24:44.916Z,8.35
2023-04-18T02:27:11.473Z,9.48
2023-04-18T02:29:37.718Z,9.20
2023-04-18T02:32:04.182Z,13.90
2023-04-18T02:34:30.559Z,8.35
2023-04-18T02:36:56.864Z,13.00
2023-04-18T02:39:23.133Z,10.30
2023-04-18T02:41:49.446Z,12.20
2023-04-18T02:44:16.945Z,9.98
2023-04-18T02:46:43.167Z,9.00
2023-04-18T02:49:09.463Z,8.68
2023-04-18T02:51:35.835Z,10.50
2023-04-18T02:54:02.204Z,11.60
2023-04-18T02:56:28.478Z,10.02
2023-04-18T02:58:54.785Z,11.52
2023-04-18T03:01:21.120Z,9.27
2023-04-18T03:03:47.445Z,9.30
2023-04-18T03:06:13.732Z,15.40
2023-04-18T03:08:41.050Z,10.40
2023-04-18T03:11:07.562Z,15.75
2023-04-18T03:13:34.506Z,10.65
2023-04-18T03:16:02.382Z,9.52
2023-04-18T03:18:28.708Z,8.88
2023-04-18T03:20:55.038Z,10.43
2023-04-18T03:23:21.367Z,11.90
2023-04-18T03:25:47.648Z,11.90
2023-04-18T03:28:13.892Z,10.20
2023-04-18T03:30:40.147Z,12.88
2023-04-18T03:33:06.470Z,9.30
2023-04-18T03:35:32.764Z,11.82
2023-04-18T03:37:59.080Z,12.18
2023-04-18T03:40:25.873Z,12.30
2023-04-18T03:42:52.214Z,9.82
2023-04-18T03:45:18.438Z,12.18
2023-04-18T03:47:44.761Z,9.95
2023-04-18T03:50:11.091Z,8.52
2023-04-18T03:52:37.330Z,10.50
2023-04-18T03:55:04.096Z,12.68
2023-04-18T03:57:30.366Z,16.55
2023-04-18T03:59:56.623Z,9.38
2023-04-18T04:02:22.973Z,6.97
2023-04-18T04:04:49.370Z,5.85
2023-04-18T04:07:15.908Z,4.90
2023-04-18T04:09:42.224Z,2.83
2023-04-18T04:12:08.492Z,5.60
2023-04-18T04:14:34.758Z,3.53
2023-04-18T04:17:01.136Z,3.28
2023-04-18T04:19:27.378Z,2.70
2023-04-18T04:21:53.720Z,6.25
2023-04-18T04:24:22.495Z,7.68
2023-04-18T04:26:50.570Z,5.55
2023-04-18T04:29:17.553Z,7.32
2023-04-18T04:31:44.089Z,4.30
2023-04-18T04:34:10.407Z,3.97
2023-04-18T04:36:36.960Z,9.18
2023-04-18T04:39:06.614Z,4.55
2023-04-18T04:41:32.928Z,9.60
2023-04-18T04:43:59.552Z,3.75
2023-04-18T04:46:29.407Z,4.22
2023-04-18T04:48:55.857Z,5.75
2023-04-18T04:51:22.275Z,9.35
2023-04-18T04:53:48.573Z,4.43
2023-04-18T04:56:15.066Z,5.95
2023-04-18T04:58:41.314Z,5.13
2023-04-18T05:01:09.120Z,6.43
2023-04-18T05:03:36.498Z,6.43
2023-04-18T05:06:03.003Z,4.28
2023-04-18T05:08:29.271Z,5.18
2023-04-18T05:10:55.717Z,7.82
2023-04-18T05:13:22.060Z,5.80
2023-04-18T05:15:49.385Z,6.20
2023-04-18T05:18:15.982Z,7.82
2023-04-18T05:20:42.326Z,7.32
2023-04-18T05:23:08.601Z,9.38
2023-04-18T05:25:34.841Z,4.65
2023-04-18T05:28:01.206Z,4.18
2023-04-18T05:30:27.477Z,10.00
2023-04-18T05:32:53.810Z,4.90
2023-04-18T05:35:20.127Z,5.85
2023-04-18T05:37:46.576Z,4.32
2023-04-18T05:40:13.147Z,4.15
2023-04-18T05:42:39.639Z,4.30
2023-04-18T05:45:06.114Z,4.05
2023-04-18T05:47:33.537Z,3.10
2023-04-18T05:50:00.252Z,8.43
2023-04-18T05:52:26.604Z,4.38
2023-04-18T05:54:53.069Z,3.38
2023-04-18T05:57:19.412Z,7.88
2023-04-18T05:59:45.761Z,5.88
2023-04-18T06:02:13.416Z,5.68
2023-04-18T06:04:41.807Z,4.38
2023-04-18T06:07:08.553Z,6.47
2023-04-18T06:09:35.036Z,7.82
2023-04-18T06:12:01.704Z,5.10
2023-04-18T06:14:28.293Z,8.95
2023-04-18T06:16:54.644Z,5.50
2023-04-18T06:19:20.937Z,7.43
2023-04-18T06:21:47.968Z,7.95
2023-04-18T06:24:14.458Z,4.15
2023-04-18T06:26:40.879Z,2.92
2023-04-18T06:29:07.213Z,8.25
2023-04-18T06:31:33.559Z,4.32
2023-04-18T06:33:59.849Z,9.80
2023-04-18T06:36:27.414Z,5.90
2023-04-18T06:38:53.719Z,6.68
2023-04-18T06:41:20.024Z,4.15
2023-04-18T06:43:59.741Z,6.93
2023-04-18T06:46:29.662Z,4.78
2023-04-18T06:48:56.034Z,8.20
2023-04-18T06:51:22.378Z,5.40
2023-04-18T06:53:52.374Z,6.95
2023-04-18T06:56:20.376Z,3.67
2023-04-18T06:58:46.904Z,6.63
2023-04-18T07:01:13.231Z,13.55
2023-04-18T07:03:39.599Z,5.38
2023-04-18T07:06:06.264Z,4.90
2023-04-18T07:08:34.560Z,7.65
2023-04-18T07:11:00.819Z,6.57
2023-04-18T07:13:27.154Z,4.80
2023-04-18T07:15:53.403Z,3.50
2023-04-18T07:18:30.263Z,16.10
2023-04-18T07:21:01.790Z,6.78
2023-04-18T07:23:28.126Z,6.53
2023-04-18T07:25:54.551Z,3.60
2023-04-18T07:28:21.067Z,5.20
2023-04-18T07:30:48.245Z,4.78
2023-04-18T07:33:14.545Z,8.60
2023-04-18T07:35:40.988Z,5.97
2023-04-18T07:38:07.324Z,2.25
2023-04-18T07:40:33.573Z,6.95
2023-04-18T07:42:59.884Z,5.38
2023-04-18T07:45:26.196Z,10.68
2023-04-18T07:47:52.529Z,8.27
2023-04-18T07:50:18.921Z,8.23
2023-04-18T07:52:48.025Z,6.65
2023-04-18T07:55:14.765Z,5.65
2023-04-18T07:57:45.802Z,8.57
2023-04-18T08:00:12.980Z,4.65
2023-04-18T08:02:39.536Z,5.97
2023-04-18T08:05:06.509Z,3.75
2023-04-18T08:07:32.916Z,7.22
2023-04-18T08:09:59.193Z,4.15
2023-04-18T08:12:25.539Z,5.43
2023-04-18T08:14:51.857Z,6.63
2023-04-18T08:17:18.175Z,7.85
2023-04-18T08:19:45.574Z,3.30
2023-04-18T08:22:12.051Z,5.22
2023-04-18T08:24:38.870Z,4.50
2023-04-18T08:27:05.266Z,5.22
2023-04-18T08:29:31.675Z,4.68
2023-04-18T08:31:58.115Z,2.17
2023-04-18T08:34:24.597Z,3.22
2023-04-18T08:36:51.410Z,2.72
2023-04-18T08:39:17.643Z,5.20
2023-04-18T08:41:45.923Z,3.60
2023-04-18T08:44:12.908Z,3.83
2023-04-18T08:46:39.379Z,3.08
2023-04-18T08:49:06.175Z,10.00
2023-04-18T08:51:35.407Z,4.80
2023-04-18T08:54:04.501Z,3.03
2023-04-18T08:56:31.208Z,4.25
2023-04-18T08:59:00.258Z,3.00
2023-04-18T09:02:01.386Z,7.57
2023-04-18T09:04:35.048Z,4.70
2023-04-18T09:07:02.449Z,2.80
2023-04-18T09:09:39.393Z,3.75
2023-04-18T09:12:07.522Z,5.68
2023-04-18T09:14:36.580Z,6.15
2023-04-18T09:17:04.190Z,7.95
2023-04-18T09:19:30.672Z,2.80
2023-04-18T09:22:01.292Z,6.15
2023-04-18T09:24:28.645Z,2.95
2023-04-18T09:26:59.621Z,2.28
2023-04-18T09:29:46.897Z,2.58
2023-04-18T09:32:20.647Z,3.58
2023-04-18T09:34:47.218Z,3.28
2023-04-18T09:37:13.941Z,2.92
2023-04-18T09:39:43.102Z,2.80
2023-04-18T09:42:10.504Z,5.60
2023-04-18T09:44:37.383Z,3.35
2023-04-18T09:47:03.661Z,4.10
2023-04-18T09:49:29.950Z,6.15
2023-04-18T09:51:56.354Z,5.28
2023-04-18T09:54:23.962Z,4.95
2023-04-18T09:56:50.906Z,2.85
2023-04-18T09:59:28.829Z,5.95
2023-04-18T10:01:55.944Z,7.15
2023-04-18T10:04:22.418Z,2.72
2023-04-18T10:06:48.913Z,3.00
2023-04-18T10:09:16.483Z,3.17
2023-04-18T10:11:43.760Z,3.60
2023-04-18T10:14:11.864Z,7.97
2023-04-18T10:16:38.894Z,1.65
2023-04-18T10:19:26.968Z,3.72
2023-04-18T10:21:53.374Z,2.10
2023-04-18T10:24:38.531Z,4.07
2023-04-18T10:27:04.770Z,6.57
2023-04-18T10:29:50.240Z,2.38
2023-04-18T10:32:17.855Z,4.70
2023-04-18T10:34:46.089Z,1.50
2023-04-18T10:37:13.006Z,2.00
2023-04-18T10:39:54.342Z,2.58
2023-04-18T10:42:40.674Z,2.33
2023-04-18T10:45:18.396Z,2.40
2023-04-18T10:47:44.755Z,1.63
2023-04-18T10:50:11.698Z,3.95
2023-04-18T10:52:38.290Z,3.47
2023-04-18T10:55:14.026Z,4.00
2023-04-18T10:57:41.344Z,5.00
2023-04-18T11:00:14.663Z,3.03
2023-04-18T11:02:47.499Z,1.20
2023-04-18T11:05:18.368Z,3.15
2023-04-18T11:10:12.946Z,2.20
2023-04-18T11:12:40.253Z,1.92
2023-04-18T11:15:10.728Z,2.25
2023-04-18T11:17:39.858Z,4.90
2023-04-18T11:20:14.035Z,3.45
2023-04-18T11:22:50.523Z,6.80
2023-04-18T11:25:17.387Z,2.72
2023-04-18T11:27:44.927Z,7.93
2023-04-18T11:30:13.826Z,3.50
2023-04-18T11:32:40.398Z,3.38
2023-04-18T11:35:10.624Z,3.42
2023-04-18T11:37:37.749Z,4.22
2023-04-18T11:40:04.823Z,3.47
2023-04-18T11:42:32.187Z,7.90
2023-04-18T11:44:58.504Z,5.65
2023-04-18T11:47:29.461Z,3.90
2023-04-18T11:50:00.335Z,3.90
2023-04-18T11:52:27.328Z,4.43
2023-04-18T11:54:54.018Z,3.53
2023-04-18T11:57:26.985Z,4.30
2023-04-18T11:59:54.547Z,3.90
2023-04-18T12:02:21.750Z,4.85
2023-04-18T12:04:54.470Z,3.00
2023-04-18T12:07:53.589Z,2.67
2023-04-18T12:10:19.891Z,5.70
2023-04-18T12:12:53.143Z,4.35
2023-04-18T12:15:19.751Z,4.57
2023-04-18T12:17:48.445Z,4.85
2023-04-18T12:20:15.943Z,6.40
2023-04-18T12:22:47.247Z,5.25
2023-04-18T12:25:26.645Z,3.13
2023-04-18T12:27:53.665Z,7.07
2023-04-18T12:30:21.946Z,3.78
2023-04-18T12:32:49.339Z,4.93
2023-04-18T12:35:16.095Z,9.15
2023-04-18T12:37:42.781Z,5.80
2023-04-18T12:40:09.238Z,6.47
2023-04-18T12:42:35.629Z,4.72
2023-04-18T12:45:03.469Z,7.28
2023-04-18T12:47:30.080Z,7.07
2023-04-18T12:49:56.411Z,6.05
2023-04-18T12:52:22.670Z,6.45
2023-04-18T12:54:48.917Z,9.55
2023-04-18T12:57:15.723Z,4.82
2023-04-18T12:59:42.002Z,6.25
2023-04-18T13:02:08.311Z,5.07
2023-04-18T13:04:34.902Z,6.15
2023-04-18T13:07:01.372Z,6.00
2023-04-18T13:09:28.099Z,5.05
2023-04-18T13:11:54.355Z,3.80
2023-04-18T13:14:21.109Z,6.50
2023-04-18T13:16:48.626Z,13.18
2023-04-18T13:19:15.114Z,5.75
2023-04-18T13:21:41.570Z,4.53
2023-04-18T13:24:07.876Z,5.78
2023-04-18T13:26:36.007Z,8.23
2023-04-18T13:29:02.414Z,9.18
2023-04-18T13:31:29.103Z,6.53
2023-04-18T13:33:55.374Z,7.68
2023-04-18T13:36:21.725Z,6.07
2023-04-18T13:38:48.410Z,7.72
2023-04-18T13:41:14.745Z,6.13
2023-04-18T13:43:40.984Z,7.47
2023-04-18T13:46:07.299Z,7.60
2023-04-18T13:48:33.678Z,8.77
2023-04-18T13:50:59.995Z,4.68
2023-04-18T13:53:26.268Z,4.97
2023-04-18T13:55:52.572Z,8.85
2023-04-18T13:58:18.918Z,6.13
2023-04-18T14:00:45.315Z,5.20
2023-04-18T14:03:11.683Z,6.85
2023-04-18T14:05:38.160Z,10.32
2023-04-18T14:08:04.769Z,11.48
2023-04-18T14:10:31.478Z,4.60
2023-04-18T14:12:57.792Z,8.00
2023-04-18T14:15:24.124Z,7.00
2023-04-18T14:17:50.610Z,9.35
2023-04-18T14:20:19.240Z,8.43
2023-04-18T14:22:46.155Z,6.88
2023-04-18T14:25:12.556Z,8.70
2023-04-18T14:27:39.042Z,7.95
2023-04-18T14:30:08.458Z,8.93
2023-04-18T14:32:35.344Z,6.18
2023-04-18T14:35:04.745Z,9.00
2023-04-18T14:37:31.152Z,8.68
2023-04-18T14:39:57.461Z,9.55
2023-04-18T14:42:23.707Z,7.05
2023-04-18T14:44:50.062Z,8.00
2023-04-18T14:47:16.413Z,5.85
2023-04-18T14:49:42.690Z,7.32
2023-04-18T14:52:08.945Z,9.75
2023-04-18T14:54:36.086Z,5.13
2023-04-18T14:57:02.302Z,8.75
2023-04-18T14:59:28.867Z,8.30
2023-04-18T15:01:55.392Z,7.90
2023-04-18T15:04:22.181Z,7.65
2023-04-18T15:06:48.672Z,8.85
2023-04-18T15:09:15.901Z,9.93
2023-04-18T15:11:42.496Z,7.88
2023-04-18T15:14:08.991Z,10.13
2023-04-18T15:16:38.009Z,6.07
2023-04-18T15:19:04.313Z,7.75
2023-04-18T15:21:30.585Z,9.02
2023-04-18T15:23:57.326Z,8.50
2023-04-18T15:26:24.133Z,14.07
2023-04-18T15:28:51.670Z,6.30
2023-04-18T15:31:17.979Z,8.77
2023-04-18T15:33:44.247Z,4.90
2023-04-18T15:36:10.468Z,7.38
2023-04-18T15:38:36.794Z,7.32
2023-04-18T15:41:03.028Z,6.80
2023-04-18T15:43:29.318Z,6.07
2023-04-18T15:45:55.563Z,4.88
2023-04-18T15:48:21.894Z,3.22
2023-04-18T15:50:51.100Z,4.53
2023-04-18T15:53:17.523Z,6.97
2023-04-18T15:55:46.411Z,3.88
2023-04-18T15:58:13.243Z,6.38
2023-04-18T16:00:39.989Z,6.63
2023-04-18T16:03:09.652Z,4.78
2023-04-18T16:05:36.131Z,4.13
2023-04-18T16:08:02.721Z,6.95
2023-04-18T16:10:29.158Z,5.50
2023-04-18T16:12:55.480Z,5.22
2023-04-18T16:15:21.796Z,5.80
2023-04-18T16:17:48.066Z,5.20
2023-04-18T16:20:14.407Z,5.40
2023-04-18T16:22:40.716Z,4.75
2023-04-18T16:25:07.350Z,5.15
2023-04-18T16:27:33.817Z,4.68
2023-04-18T16:30:00.195Z,8.32
2023-04-18T16:32:26.528Z,5.03
2023-04-18T16:34:52.795Z,5.88
2023-04-18T16:37:19.950Z,5.03
2023-04-18T16:39:46.322Z,7.22
2023-04-18T16:42:15.360Z,6.60
2023-04-18T16:44:42.016Z,6.05
2023-04-18T16:47:08.454Z,5.43
2023-04-18T16:49:34.906Z,6.57
2023-04-18T16:52:01.753Z,6.43
2023-04-18T16:54:27.988Z,4.90
2023-04-18T16:56:54.369Z,5.18
2023-04-18T16:59:20.833Z,4.07
2023-04-18T17:01:47.290Z,8.25
2023-04-18T17:04:14.669Z,6.05
2023-04-18T17:06:42.837Z,6.35
2023-04-18T17:09:09.226Z,4.18
2023-04-18T17:11:39.567Z,5.45
2023-04-18T17:14:07.608Z,5.32
2023-04-18T17:16:34.657Z,8.88
2023-04-18T17:19:01.663Z,7.55
2023-04-18T17:21:28.265Z,3.83
2023-04-18T17:23:55.146Z,8.05
2023-04-18T17:26:22.550Z,6.25
2023-04-18T17:28:48.817Z,5.57
2023-04-18T17:31:15.197Z,6.47
2023-04-18T17:33:41.663Z,6.57
2023-04-18T17:36:07.979Z,5.75
2023-04-18T17:38:34.260Z,6.78
2023-04-18T17:41:01.051Z,4.72
2023-04-18T17:43:27.471Z,4.38
2023-04-18T17:45:53.982Z,6.63
2023-04-18T17:48:20.370Z,6.07
2023-04-18T17:50:46.823Z,4.15
2023-04-18T17:53:13.115Z,6.00
2023-04-18T17:55:40.114Z,12.88
2023-04-18T17:58:06.726Z,5.38
2023-04-18T18:00:33.152Z,16.73
2023-04-18T18:03:01.619Z,6.85
2023-04-18T18:05:28.240Z,10.45
2023-04-18T18:07:56.095Z,3.90
2023-04-18T18:10:23.785Z,5.45
2023-04-18T18:12:50.458Z,7.78
2023-04-18T18:15:17.672Z,5.45
2023-04-18T18:17:43.960Z,7.03
2023-04-18T18:20:13.018Z,4.88
2023-04-18T18:22:39.319Z,7.60
2023-04-18T18:25:05.906Z,5.10
2023-04-18T18:27:32.329Z,5.43
2023-04-18T18:29:58.577Z,10.07
2023-04-18T18:32:26.742Z,6.03
2023-04-18T18:34:53.056Z,7.35
2023-04-18T18:37:19.579Z,5.70
2023-04-18T18:39:45.842Z,4.38
2023-04-18T18:42:12.170Z,4.63
2023-04-18T18:44:38.440Z,5.68
2023-04-18T18:47:04.773Z,4.97
2023-04-18T18:49:31.069Z,5.80
2023-04-18T18:51:57.806Z,4.55
2023-04-18T18:54:24.408Z,5.40
2023-04-18T18:56:51.668Z,4.85
2023-04-18T18:59:18.087Z,5.03
2023-04-18T19:01:44.506Z,6.63
2023-04-18T19:04:11.338Z,4.47
2023-04-18T19:06:37.936Z,6.13
2023-04-18T19:09:05.162Z,4.03
2023-04-18T19:11:31.497Z,3.05
2023-04-18T19:13:57.788Z,4.28
2023-04-18T19:16:24.193Z,9.57
2023-04-18T19:18:50.661Z,9.80
2023-04-18T19:21:17.410Z,8.45
2023-04-18T19:23:43.711Z,13.07
2023-04-18T19:26:10.398Z,8.10
2023-04-18T19:28:36.701Z,11.25
2023-04-18T19:31:03.021Z,8.27
2023-04-18T19:33:29.378Z,8.25
2023-04-18T19:35:55.860Z,11.20
2023-04-18T19:38:22.378Z,8.40
2023-04-18T19:40:48.805Z,13.20
2023-04-18T19:43:15.157Z,9.88
2023-04-18T19:45:41.499Z,7.85
2023-04-18T19:48:07.886Z,9.30
2023-04-18T19:50:34.209Z,10.88
2023-04-18T19:53:00.500Z,7.00
2023-04-18T19:55:26.975Z,8.48
2023-04-18T19:57:54.671Z,8.68
2023-04-18T20:00:21.617Z,7.95
2023-04-18T20:02:48.210Z,14.38
2023-04-18T20:05:14.809Z,11.48
2023-04-18T20:07:41.746Z,7.72
2023-04-18T20:10:08.985Z,9.32
2023-04-18T20:12:35.747Z,10.68
2023-04-18T20:15:02.101Z,11.20
2023-04-18T20:17:30.478Z,7.32
2023-04-18T20:19:57.069Z,9.30
2023-04-18T20:22:26.897Z,9.57
2023-04-18T20:24:53.432Z,13.95
2023-04-18T20:27:20.607Z,12.40
2023-04-18T20:29:46.868Z,8.88
2023-04-18T20:32:13.095Z,6.22
2023-04-18T20:34:39.491Z,10.68
2023-04-18T20:37:09.883Z,9.13
2023-04-18T20:39:38.011Z,8.48
2023-04-18T20:42:04.518Z,7.05
2023-04-18T20:44:31.911Z,11.02
2023-04-18T20:46:58.196Z,9.15
2023-04-18T20:49:24.428Z,7.72
2023-04-18T20:51:50.747Z,9.65
2023-04-18T20:54:17.476Z,8.07
2023-04-18T20:56:43.881Z,6.75
2023-04-18T20:59:10.207Z,8.95
2023-04-18T21:01:37.274Z,7.35
2023-04-18T21:04:03.806Z,8.13
2023-04-18T21:06:30.970Z,7.25
2023-04-18T21:08:57.225Z,11.77
2023-04-18T21:11:23.734Z,10.32
2023-04-18T21:13:50.099Z,17.30
2023-04-18T21:16:16.533Z,6.40
2023-04-18T21:18:42.838Z,8.70
2023-04-18T21:21:09.214Z,7.40
2023-04-18T21:23:41.092Z,10.93
2023-04-18T21:26:07.543Z,8.55
2023-04-18T21:28:33.765Z,8.90
2023-04-18T21:31:00.117Z,10.48
2023-04-18T21:33:26.467Z,3.13
2023-04-18T21:35:52.746Z,2.47
2023-04-18T21:38:19.222Z,7.45
2023-04-18T21:40:45.636Z,9.20
2023-04-18T21:43:11.947Z,4.47
2023-04-18T21:45:38.222Z,7.63
2023-04-18T21:48:05.044Z,7.13
2023-04-18T21:50:31.355Z,7.30
2023-04-18T21:52:57.666Z,9.55
2023-04-18T21:55:23.893Z,7.40
2023-04-18T21:57:50.161Z,6.55
2023-04-18T22:00:16.652Z,9.35
2023-04-18T22:02:43.101Z,6.97
2023-04-18T22:05:09.517Z,10.80
2023-04-18T22:07:43.327Z,7.53
2023-04-18T22:12:44.311Z,7.43
2023-04-18T22:15:10.775Z,8.40
2023-04-18T22:17:37.865Z,7.72
2023-04-18T22:20:05.691Z,8.35
2023-04-18T22:22:31.929Z,7.25
2023-04-18T22:24:58.175Z,6.60
2023-04-18T22:27:24.496Z,7.47
2023-04-18T22:29:51.047Z,7.97
2023-04-18T22:32:17.307Z,8.98
2023-04-18T22:34:44.661Z,7.80
2023-04-18T22:37:10.948Z,8.73
2023-04-18T22:39:37.237Z,9.25
2023-04-18T22:42:03.628Z,7.03
2023-04-18T22:44:29.957Z,8.20
2023-04-18T22:46:56.263Z,8.23
2023-04-18T22:49:23.185Z,8.35
2023-04-18T22:51:49.653Z,9.23
2023-04-18T22:54:16.122Z,7.55
2023-04-18T22:56:42.554Z,8.27
2023-04-18T22:59:08.820Z,9.23
2023-04-18T23:01:35.178Z,8.30
2023-04-18T23:04:01.653Z,8.82
2023-04-18T23:06:28.261Z,9.45
2023-04-18T23:08:54.466Z,7.97
2023-04-18T23:11:21.524Z,9.23
2023-04-18T23:13:47.832Z,11.85
2023-04-18T23:16:14.130Z,9.75
2023-04-18T23:18:40.559Z,10.93
2023-04-18T23:21:06.987Z,8.52
2023-04-18T23:23:33.252Z,16.15
2023-04-18T23:26:00.156Z,11.43
2023-04-18T23:28:26.502Z,9.23
2023-04-18T23:30:52.788Z,8.05
2023-04-18T23:33:19.107Z,9.13
2023-04-18T23:35:45.467Z,7.80
2023-04-18T23:38:11.710Z,9.25
2023-04-18T23:40:38.010Z,9.88
2023-04-18T23:43:04.281Z,8.93
2023-04-18T23:45:30.978Z,8.75
2023-04-18T23:47:57.332Z,7.97
2023-04-18T23:50:23.617Z,10.48
2023-04-18T23:52:49.910Z,10.88
2023-04-18T23:55:16.671Z,11.18
2023-04-18T23:57:43.068Z,11.82
